Time;durP1;ratioP1;P1;durP2;ratioP2;P2;SDS_P1;SDS_P2;PMS_P1;PMS_P2;Temp;Humidity;BMP_temperature;BMP_pressure;BME280_temperature;BME280_humidity;BME280_pressure;Samples;Min_cycle;Max_cycle;Signal;HPM_P1;HPM_P2
2021/08/06 00:01:09;;;;;;;0.80;0.80;;;20.40;99.90;;;;;;4701855;30;20483;-90
2021/08/06 00:03:35;;;;;;;0.70;0.70;;;20.40;99.90;;;;;;4702114;30;20481;-91
2021/08/06 00:06:02;;;;;;;1.00;0.80;;;20.40;99.90;;;;;;4701502;30;20693;-87
2021/08/06 00:08:28;;;;;;;0.90;0.90;;;20.40;99.90;;;;;;4703201;30;20190;-90
2021/08/06 00:10:53;;;;;;;0.80;0.80;;;20.40;99.90;;;;;;4702257;30;20466;-85
2021/08/06 00:13:19;;;;;;;1.23;1.17;;;20.40;99.90;;;;;;4702576;30;20265;-86
2021/08/06 00:15:45;;;;;;;1.10;1.00;;;20.40;99.90;;;;;;4705398;30;20219;-89
2021/08/06 00:18:10;;;;;;;0.90;0.90;;;20.40;99.90;;;;;;4705622;30;20187;-87
2021/08/06 00:20:36;;;;;;;1.23;1.07;;;20.30;99.90;;;;;;4704270;30;20217;-86
2021/08/06 00:23:04;;;;;;;1.33;1.13;;;20.30;99.90;;;;;;4702856;30;20676;-86
2021/08/06 00:25:30;;;;;;;0.90;0.90;;;20.30;99.90;;;;;;4701527;30;20249;-87
2021/08/06 00:27:55;;;;;;;1.00;0.90;;;20.30;99.90;;;;;;4702877;30;20464;-90
2021/08/06 00:30:21;;;;;;;2.30;0.60;;;20.30;99.90;;;;;;4703274;30;20483;-88
2021/08/06 00:32:47;;;;;;;0.70;0.70;;;20.30;99.90;;;;;;4701597;30;20700;-89
2021/08/06 00:35:13;;;;;;;0.80;0.80;;;20.30;99.90;;;;;;4703293;30;20591;-87
2021/08/06 00:37:38;;;;;;;0.90;0.73;;;20.30;99.90;;;;;;4701585;30;20190;-90
2021/08/06 00:40:05;;;;;;;0.90;0.90;;;20.20;99.90;;;;;;4701567;30;20453;-87
2021/08/06 00:42:31;;;;;;;1.00;1.00;;;20.20;99.90;;;;;;4702684;30;20186;-87
2021/08/06 00:44:56;;;;;;;1.27;1.00;;;20.20;99.90;;;;;;4701427;30;20497;-87
2021/08/06 00:47:25;;;;;;;1.10;1.00;;;20.20;99.90;;;;;;4702852;30;20189;-89
2021/08/06 00:49:51;;;;;;;1.07;1.07;;;20.20;99.90;;;;;;4712052;30;20193;-90
2021/08/06 00:52:17;;;;;;;0.93;0.80;;;20.20;99.90;;;;;;4709962;30;20495;-88
2021/08/06 00:54:43;;;;;;;1.03;0.93;;;20.10;99.90;;;;;;4710948;30;20420;-87
2021/08/06 00:57:13;;;;;;;0.70;0.70;;;20.10;99.90;;;;;;4701089;30;20226;-87
2021/08/06 00:59:39;;;;;;;1.23;1.10;;;20.10;99.90;;;;;;4701100;30;20194;-90
2021/08/06 01:02:15;;;;;;;1.00;0.90;;;20.10;99.90;;;;;;4702335;30;20497;-88
2021/08/06 01:04:51;;;;;;;1.67;0.90;;;20.00;99.90;;;;;;4700943;30;20437;-88
2021/08/06 01:07:23;;;;;;;0.70;0.70;;;20.00;99.90;;;;;;4702323;30;20454;-86
2021/08/06 01:09:56;;;;;;;1.13;1.03;;;19.90;99.90;;;;;;4701930;30;20770;-89
2021/08/06 01:12:50;;;;;;;1.07;1.00;;;19.80;99.90;;;;;;4701044;30;21034;-87
2021/08/06 01:15:17;;;;;;;0.70;0.70;;;19.70;99.90;;;;;;4700247;30;20422;-89
2021/08/06 01:17:45;;;;;;;0.80;0.80;;;19.70;99.90;;;;;;4701836;30;20489;-86
2021/08/06 01:20:33;;;;;;;1.03;0.93;;;19.60;99.90;;;;;;4701877;30;20936;-88
2021/08/06 01:23:13;;;;;;;1.00;1.00;;;19.50;99.90;;;;;;4705403;30;20438;-88
2021/08/06 01:25:55;;;;;;;1.20;1.00;;;19.50;99.90;;;;;;4702062;30;20931;-87
2021/08/06 01:28:27;;;;;;;3.47;1.30;;;19.40;99.90;;;;;;4700621;30;20858;-88
2021/08/06 01:30:55;;;;;;;1.13;0.83;;;19.40;99.90;;;;;;4700907;30;20465;-85
2021/08/06 01:33:20;;;;;;;0.97;0.90;;;19.30;99.90;;;;;;4700439;30;20491;-89
2021/08/06 01:35:47;;;;;;;1.20;1.10;;;19.30;99.90;;;;;;4701636;30;21030;-89
2021/08/06 01:38:14;;;;;;;1.00;0.97;;;19.20;99.90;;;;;;4701975;30;20572;-87
2021/08/06 01:41:17;;;;;;;1.10;0.90;;;19.20;99.90;;;;;;4706084;30;20473;-87
2021/08/06 01:44:06;;;;;;;1.30;0.90;;;19.10;99.90;;;;;;4702711;30;20436;-86
2021/08/06 01:46:44;;;;;;;1.07;0.97;;;19.00;99.90;;;;;;4709173;30;20847;-87
2021/08/06 01:49:23;;;;;;;1.97;0.97;;;18.90;99.90;;;;;;4700203;30;20429;-89
2021/08/06 01:51:54;;;;;;;1.10;1.00;;;18.90;99.90;;;;;;4700425;30;20869;-87
2021/08/06 01:54:21;;;;;;;0.70;0.70;;;18.90;99.90;;;;;;4700161;30;20463;-88
2021/08/06 01:56:50;;;;;;;0.93;0.80;;;18.90;99.90;;;;;;4701074;30;20456;-90
2021/08/06 01:59:17;;;;;;;0.97;0.97;;;18.90;99.90;;;;;;4700154;30;20796;-88
2021/08/06 02:01:53;;;;;;;1.63;1.17;;;18.80;99.90;;;;;;4700044;30;20497;-90
2021/08/06 02:04:19;;;;;;;1.17;1.07;;;18.70;99.90;;;;;;4700208;30;20502;-92
2021/08/06 02:06:44;;;;;;;0.93;0.90;;;18.70;99.90;;;;;;4701506;30;20555;-90
2021/08/06 02:09:18;;;;;;;0.90;0.90;;;18.70;99.90;;;;;;4700205;30;20195;-86
2021/08/06 02:11:45;;;;;;;1.23;1.10;;;18.60;99.90;;;;;;4699856;30;20713;-89
2021/08/06 02:14:12;;;;;;;1.00;0.90;;;18.60;99.90;;;;;;4700450;30;20962;-88
2021/08/06 02:16:40;;;;;;;0.90;0.90;;;18.60;99.90;;;;;;4699857;30;21052;-86
2021/08/06 02:19:07;;;;;;;0.87;0.87;;;18.60;99.90;;;;;;4699867;30;20430;-87
2021/08/06 02:21:36;;;;;;;0.90;0.90;;;18.60;99.90;;;;;;4700045;30;21003;-86
2021/08/06 02:24:08;;;;;;;0.80;0.80;;;18.60;99.90;;;;;;4699737;30;20531;-87
2021/08/06 02:26:36;;;;;;;1.67;1.03;;;18.60;99.90;;;;;;4698987;30;20464;-88
2021/08/06 02:29:06;;;;;;;2.10;0.80;;;18.60;99.90;;;;;;4700822;30;20427;-89
2021/08/06 02:31:33;;;;;;;1.13;0.80;;;18.60;99.90;;;;;;4699847;30;20463;-88
2021/08/06 02:34:00;;;;;;;1.20;1.07;;;18.50;99.90;;;;;;4699557;30;20480;-91
2021/08/06 02:36:26;;;;;;;0.70;0.70;;;18.60;99.90;;;;;;4707838;30;20459;-89
2021/08/06 02:38:56;;;;;;;2.00;0.87;;;18.60;99.90;;;;;;4702620;30;20515;-86
2021/08/06 02:41:22;;;;;;;1.10;1.00;;;18.60;99.90;;;;;;4712040;30;20286;-92
2021/08/06 02:43:48;;;;;;;1.20;1.10;;;18.60;99.90;;;;;;4702282;30;20427;-88
2021/08/06 02:46:16;;;;;;;1.23;0.63;;;18.60;99.90;;;;;;4704813;30;20808;-87
2021/08/06 02:48:41;;;;;;;0.97;0.97;;;18.60;99.90;;;;;;4700888;30;20221;-87
2021/08/06 02:51:07;;;;;;;0.70;0.70;;;18.60;99.90;;;;;;4703822;30;20472;-89
2021/08/06 02:53:33;;;;;;;1.00;0.90;;;18.60;99.90;;;;;;4699393;30;20242;-89
2021/08/06 02:55:58;;;;;;;0.93;0.90;;;18.60;99.90;;;;;;4700873;30;20233;-87
2021/08/06 02:58:24;;;;;;;1.00;0.90;;;18.60;99.90;;;;;;4699596;30;20183;-88
2021/08/06 03:00:50;;;;;;;0.90;0.80;;;18.60;99.90;;;;;;4699400;30;20242;-88
2021/08/06 03:03:16;;;;;;;1.13;1.03;;;18.60;99.90;;;;;;4700472;30;20494;-87
2021/08/06 03:05:42;;;;;;;1.00;0.90;;;18.60;99.90;;;;;;4699710;30;20640;-87
2021/08/06 03:08:08;;;;;;;1.10;0.77;;;18.60;99.90;;;;;;4703279;30;20448;-89
2021/08/06 03:10:34;;;;;;;1.10;1.00;;;18.60;99.90;;;;;;4709333;30;20219;-89
2021/08/06 03:13:00;;;;;;;1.27;1.17;;;18.60;99.90;;;;;;4706715;30;20227;-91
2021/08/06 03:15:26;;;;;;;0.73;0.70;;;18.60;99.90;;;;;;4699874;30;20471;-90
2021/08/06 03:17:52;;;;;;;1.90;1.00;;;18.70;99.90;;;;;;4700540;30;20503;-87
2021/08/06 03:20:21;;;;;;;1.00;0.90;;;18.70;99.90;;;;;;4699373;30;20214;-87
2021/08/06 03:22:47;;;;;;;1.00;0.90;;;18.70;99.90;;;;;;4699614;30;20444;-92
2021/08/06 03:25:13;;;;;;;1.43;1.10;;;18.70;99.90;;;;;;4699188;30;20475;-90
2021/08/06 03:27:39;;;;;;;1.90;1.10;;;18.70;99.90;;;;;;4699726;30;20535;-91
2021/08/06 03:30:08;;;;;;;0.90;0.87;;;18.70;99.90;;;;;;4699428;30;20466;-87
2021/08/06 03:32:34;;;;;;;1.00;1.00;;;18.70;99.90;;;;;;4699695;30;20496;-88
2021/08/06 03:35:00;;;;;;;1.30;1.20;;;18.70;99.90;;;;;;4699111;30;20472;-88
2021/08/06 03:37:26;;;;;;;0.90;0.90;;;18.70;99.90;;;;;;4712294;30;20741;-91
2021/08/06 03:39:51;;;;;;;2.47;1.03;;;18.70;99.90;;;;;;4720169;30;20206;-89
2021/08/06 03:42:17;;;;;;;1.20;1.10;;;18.70;99.90;;;;;;4726188;30;20564;-89
2021/08/06 03:44:43;;;;;;;1.10;1.00;;;18.70;99.90;;;;;;4718241;30;20244;-89
2021/08/06 03:47:08;;;;;;;1.53;1.30;;;18.70;99.90;;;;;;4719462;30;20214;-90
2021/08/06 03:49:34;;;;;;;1.70;1.37;;;18.70;99.90;;;;;;4718430;30;20186;-90
2021/08/06 03:51:59;;;;;;;1.50;1.07;;;18.70;99.90;;;;;;4719538;30;20206;-90
2021/08/06 03:54:25;;;;;;;1.33;1.10;;;18.70;99.90;;;;;;4721106;30;20186;-91
2021/08/06 03:56:51;;;;;;;1.77;1.00;;;18.70;99.90;;;;;;4720039;30;20214;-89
2021/08/06 03:59:17;;;;;;;1.33;0.90;;;18.70;99.90;;;;;;4720095;30;20186;-92
2021/08/06 04:01:42;;;;;;;1.37;1.27;;;18.70;99.90;;;;;;4719247;30;20241;-88
2021/08/06 04:04:08;;;;;;;1.43;1.10;;;18.70;99.90;;;;;;4719644;30;20218;-89
2021/08/06 04:06:34;;;;;;;2.60;1.13;;;18.70;99.90;;;;;;4719700;30;20222;-88
2021/08/06 04:09:00;;;;;;;1.20;1.10;;;18.70;99.90;;;;;;4720600;30;20622;-90
2021/08/06 04:11:26;;;;;;;1.37;1.27;;;18.70;99.90;;;;;;4719394;30;20511;-88
2021/08/06 04:13:51;;;;;;;1.00;1.00;;;18.70;99.90;;;;;;4719227;30;20330;-87
2021/08/06 04:16:17;;;;;;;1.40;1.30;;;18.70;99.90;;;;;;4719466;30;20263;-89
2021/08/06 04:18:43;;;;;;;1.30;1.20;;;18.70;99.90;;;;;;4718798;30;20202;-88
2021/08/06 04:21:09;;;;;;;1.13;1.03;;;18.80;99.90;;;;;;4720158;30;20848;-91
2021/08/06 04:23:35;;;;;;;2.07;1.00;;;18.80;99.90;;;;;;4718932;30;20775;-87
2021/08/06 04:26:01;;;;;;;3.10;1.17;;;18.80;99.90;;;;;;4719126;30;20505;-85
2021/08/06 04:28:26;;;;;;;1.30;1.20;;;18.90;99.90;;;;;;4719172;30;20928;-87
2021/08/06 04:30:52;;;;;;;1.10;1.00;;;18.90;99.90;;;;;;4720153;30;20253;-88
2021/08/06 04:33:18;;;;;;;2.73;1.07;;;18.90;99.90;;;;;;4718559;30;20219;-86
2021/08/06 04:35:44;;;;;;;16.07;2.90;;;18.90;99.90;;;;;;4719339;30;20274;-86
2021/08/06 04:38:09;;;;;;;14.63;2.90;;;18.90;99.90;;;;;;4718256;30;20195;-90
2021/08/06 04:40:37;;;;;;;6.80;1.70;;;18.90;99.90;;;;;;4719992;30;20819;-90
2021/08/06 04:43:03;;;;;;;3.07;1.03;;;18.90;99.90;;;;;;4730692;30;20188;-86
2021/08/06 04:45:28;;;;;;;1.23;1.13;;;18.90;99.90;;;;;;4730334;30;20891;-89
2021/08/06 04:47:55;;;;;;;1.13;1.03;;;18.90;99.90;;;;;;4721535;30;20205;-87
2021/08/06 04:50:22;;;;;;;1.50;1.40;;;19.00;99.90;;;;;;4717716;30;20454;-87
2021/08/06 04:52:48;;;;;;;1.17;1.00;;;19.00;99.90;;;;;;4718971;30;20479;-91
2021/08/06 04:55:14;;;;;;;1.30;1.20;;;19.00;99.90;;;;;;4717742;30;20437;-88
2021/08/06 04:57:40;;;;;;;1.40;1.30;;;19.10;99.90;;;;;;4716527;30;20187;-88
2021/08/06 05:00:08;;;;;;;1.93;1.50;;;19.10;99.90;;;;;;4722416;30;20441;-85
2021/08/06 05:02:34;;;;;;;1.50;1.40;;;19.10;99.90;;;;;;4724746;30;20945;-88
2021/08/06 05:05:03;;;;;;;3.10;2.07;;;19.20;99.90;;;;;;4732123;30;20442;-86
2021/08/06 05:07:29;;;;;;;1.60;1.47;;;19.20;99.90;;;;;;4722470;30;20467;-86
2021/08/06 05:09:56;;;;;;;2.40;2.20;;;19.30;99.90;;;;;;4716633;30;20468;-88
2021/08/06 05:12:21;;;;;;;1.50;1.40;;;19.30;99.90;;;;;;4718050;30;20591;-88
2021/08/06 05:14:47;;;;;;;1.93;1.77;;;19.40;99.90;;;;;;4719191;30;20510;-86
2021/08/06 05:17:13;;;;;;;2.33;1.93;;;19.40;99.90;;;;;;4718302;30;20249;-90
2021/08/06 05:19:39;;;;;;;2.10;1.90;;;19.50;99.90;;;;;;4718123;30;20565;-87
2021/08/06 05:22:05;;;;;;;2.23;2.03;;;19.60;99.90;;;;;;4718592;30;20219;-87
2021/08/06 05:24:31;;;;;;;2.17;1.97;;;19.60;99.90;;;;;;4718358;30;20788;-88
2021/08/06 05:26:57;;;;;;;2.30;2.10;;;19.70;99.90;;;;;;4716545;30;20220;-87
2021/08/06 05:29:22;;;;;;;1.97;1.87;;;19.80;99.90;;;;;;4716248;30;20282;-89
2021/08/06 05:31:48;;;;;;;2.30;2.00;;;19.90;99.90;;;;;;4717339;30;20567;-87
2021/08/06 05:34:14;;;;;;;2.90;2.60;;;19.90;99.90;;;;;;4715987;30;20457;-88
2021/08/06 05:36:40;;;;;;;2.70;2.33;;;20.00;99.90;;;;;;4716747;30;20225;-89
2021/08/06 05:39:05;;;;;;;3.40;2.10;;;20.10;99.90;;;;;;4734427;30;20201;-86
2021/08/06 05:41:31;;;;;;;3.03;2.70;;;20.10;99.90;;;;;;4719633;30;20304;-87
2021/08/06 05:43:57;;;;;;;2.50;2.27;;;20.20;99.90;;;;;;4715835;30;20251;-86
2021/08/06 05:46:22;;;;;;;3.03;2.73;;;20.30;99.90;;;;;;4712685;30;20216;-87
2021/08/06 05:48:48;;;;;;;2.30;2.10;;;20.40;99.90;;;;;;4716854;30;20200;-86
2021/08/06 05:51:14;;;;;;;2.43;2.23;;;20.40;99.90;;;;;;4717357;30;20221;-89
2021/08/06 05:53:40;;;;;;;2.80;2.60;;;20.50;99.90;;;;;;4718060;30;20232;-87
2021/08/06 05:56:06;;;;;;;2.30;2.10;;;20.50;99.90;;;;;;4717380;30;20496;-91
2021/08/06 05:58:32;;;;;;;2.40;2.20;;;20.60;99.90;;;;;;4721531;30;20193;-89
2021/08/06 06:00:58;;;;;;;2.53;2.33;;;20.60;99.90;;;;;;4718580;30;20502;-89
2021/08/06 06:03:24;;;;;;;2.30;2.10;;;20.70;99.90;;;;;;4716500;30;20648;-90
2021/08/06 06:05:49;;;;;;;2.50;2.30;;;20.80;99.90;;;;;;4714868;30;20211;-88
2021/08/06 06:08:15;;;;;;;3.30;3.00;;;20.80;99.90;;;;;;4717075;30;20423;-89
2021/08/06 06:10:41;;;;;;;4.33;2.47;;;20.90;99.90;;;;;;4716772;30;20228;-87
2021/08/06 06:13:07;;;;;;;5.53;2.30;;;21.00;99.90;;;;;;4715638;30;20572;-89
2021/08/06 06:15:33;;;;;;;2.47;2.27;;;21.00;99.90;;;;;;4715912;30;20229;-89
2021/08/06 06:17:58;;;;;;;3.07;2.70;;;21.10;99.90;;;;;;4716099;30;20204;-86
2021/08/06 06:20:24;;;;;;;3.40;2.80;;;21.10;99.90;;;;;;4724266;30;21000;-88
2021/08/06 06:22:50;;;;;;;2.50;2.30;;;21.20;99.90;;;;;;4721959;30;20249;-85
2021/08/06 06:25:16;;;;;;;2.90;2.70;;;21.30;99.90;;;;;;4721818;30;20696;-86
2021/08/06 06:28:03;;;;;;;2.30;2.10;;;21.30;99.90;;;;;;4723610;30;20446;-86
2021/08/06 06:30:30;;;;;;;2.80;2.60;;;21.40;99.90;;;;;;4716146;30;20521;-85
2021/08/06 06:32:58;;;;;;;3.53;3.00;;;21.40;99.90;;;;;;4721542;30;20502;-93
2021/08/06 06:35:25;;;;;;;3.07;2.60;;;21.50;99.90;;;;;;4716711;30;20822;-87
2021/08/06 06:37:51;;;;;;;2.60;2.40;;;21.50;99.90;;;;;;4717613;30;20462;-87
2021/08/06 06:40:19;;;;;;;3.10;2.83;;;21.60;99.90;;;;;;4711734;30;20463;-86
2021/08/06 06:42:45;;;;;;;3.43;2.17;;;21.60;99.90;;;;;;4716806;30;20451;-87
2021/08/06 06:45:12;;;;;;;3.00;2.57;;;21.60;99.90;;;;;;4715672;30;20443;-87
2021/08/06 06:47:43;;;;;;;4.53;2.50;;;21.60;99.90;;;;;;4717123;30;20952;-90
2021/08/06 06:50:11;;;;;;;2.50;2.30;;;21.70;99.90;;;;;;4716037;30;20431;-90
2021/08/06 06:52:38;;;;;;;2.40;2.20;;;21.80;99.90;;;;;;4716080;30;20548;-85
2021/08/06 06:55:06;;;;;;;2.60;2.40;;;21.90;99.90;;;;;;4714286;30;20479;-84
2021/08/06 06:57:32;;;;;;;2.63;2.43;;;21.90;99.90;;;;;;4715503;30;20454;-84
2021/08/06 06:59:57;;;;;;;3.67;2.80;;;21.90;99.90;;;;;;4716826;30;20438;-89
2021/08/06 07:02:23;;;;;;;2.47;2.27;;;22.00;99.90;;;;;;4714762;30;20486;-88
2021/08/06 07:04:49;;;;;;;2.83;2.63;;;22.10;99.90;;;;;;4716472;30;20197;-85
2021/08/06 07:07:15;;;;;;;2.53;2.33;;;22.10;99.90;;;;;;4717993;30;20447;-87
2021/08/06 07:09:41;;;;;;;2.77;2.40;;;22.20;99.90;;;;;;4716198;30;20442;-87
2021/08/06 07:12:07;;;;;;;2.63;2.43;;;22.20;99.90;;;;;;4715474;30;20462;-86
2021/08/06 07:14:33;;;;;;;3.03;2.83;;;22.30;99.90;;;;;;4718611;30;20449;-85
2021/08/06 07:16:59;;;;;;;2.60;2.40;;;22.30;99.90;;;;;;4718810;30;20216;-88
2021/08/06 07:19:25;;;;;;;3.57;2.97;;;22.40;99.90;;;;;;4711522;30;20909;-84
2021/08/06 07:21:51;;;;;;;2.80;2.60;;;22.40;99.90;;;;;;4724685;30;20478;-84
2021/08/06 07:24:18;;;;;;;2.60;2.40;;;22.50;99.90;;;;;;4723415;30;20454;-85
2021/08/06 07:26:44;;;;;;;5.13;2.70;;;22.50;99.90;;;;;;4718302;30;20544;-87
2021/08/06 07:29:10;;;;;;;3.07;2.77;;;22.60;99.90;;;;;;4718641;30;20463;-84
2021/08/06 07:31:36;;;;;;;2.80;2.60;;;22.70;99.90;;;;;;4716749;30;20447;-84
2021/08/06 07:34:01;;;;;;;3.00;2.37;;;22.70;99.90;;;;;;4719387;30;20762;-86
2021/08/06 07:36:27;;;;;;;2.37;2.17;;;22.80;99.90;;;;;;4713089;30;20212;-90
2021/08/06 07:38:53;;;;;;;2.47;2.27;;;22.80;99.90;;;;;;4715437;30;20198;-86
2021/08/06 07:41:18;;;;;;;2.57;2.20;;;22.90;99.90;;;;;;4722299;30;20210;-87
2021/08/06 07:43:44;;;;;;;2.50;2.30;;;23.00;99.90;;;;;;4717183;30;20198;-90
2021/08/06 07:46:10;;;;;;;2.40;2.20;;;23.00;99.90;;;;;;4713351;30;20579;-88
2021/08/06 07:48:36;;;;;;;2.30;2.10;;;23.10;99.90;;;;;;4717446;30;20461;-88
2021/08/06 07:51:02;;;;;;;2.50;2.10;;;23.10;99.90;;;;;;4713488;30;20462;-87
2021/08/06 07:53:28;;;;;;;2.37;2.17;;;23.20;99.90;;;;;;4714835;30;20699;-90
2021/08/06 07:55:54;;;;;;;2.60;2.40;;;23.20;99.90;;;;;;4712542;30;20547;-91
2021/08/06 07:58:20;;;;;;;2.60;2.40;;;23.30;99.90;;;;;;4708098;30;20201;-87
2021/08/06 08:00:46;;;;;;;2.30;2.10;;;23.40;99.90;;;;;;4719212;30;20286;-89
2021/08/06 08:03:12;;;;;;;3.37;2.17;;;23.40;99.90;;;;;;4716741;30;20482;-86
2021/08/06 08:05:37;;;;;;;2.27;2.07;;;23.50;99.90;;;;;;4721568;30;20221;-88
2021/08/06 08:08:04;;;;;;;2.27;2.07;;;23.50;99.90;;;;;;4714346;30;20200;-87
2021/08/06 08:10:30;;;;;;;2.57;2.30;;;23.60;99.90;;;;;;4705232;30;20223;-89
2021/08/06 08:12:56;;;;;;;2.13;1.93;;;23.60;99.90;;;;;;4718895;30;20496;-88
2021/08/06 08:15:22;;;;;;;2.00;1.80;;;23.60;99.90;;;;;;4711018;30;20521;-89
2021/08/06 08:17:47;;;;;;;2.30;2.10;;;23.70;99.90;;;;;;4723437;30;20480;-90
2021/08/06 08:20:14;;;;;;;1.77;1.67;;;23.70;99.90;;;;;;4707821;30;20198;-88
2021/08/06 08:22:43;;;;;;;2.00;1.90;;;23.80;99.90;;;;;;4713211;30;20199;-88
2021/08/06 08:25:10;;;;;;;2.07;1.97;;;23.90;99.90;;;;;;4713806;30;21005;-90
2021/08/06 08:27:36;;;;;;;1.70;1.60;;;24.00;99.90;;;;;;4714776;30;20573;-87
2021/08/06 08:30:04;;;;;;;3.37;2.07;;;24.00;99.90;;;;;;4715223;30;20583;-90
2021/08/06 08:32:37;;;;;;;1.90;1.80;;;24.10;99.90;;;;;;4725937;30;20218;-88
2021/08/06 08:35:04;;;;;;;2.00;1.90;;;24.10;99.90;;;;;;4715651;30;20440;-87
2021/08/06 08:37:30;;;;;;;2.67;2.40;;;24.20;99.90;;;;;;4715992;30;20578;-89
2021/08/06 08:39:56;;;;;;;3.83;2.00;;;24.20;99.90;;;;;;4715410;30;20465;-87
2021/08/06 08:42:22;;;;;;;2.10;2.00;;;24.30;99.90;;;;;;4717777;30;20432;-91
2021/08/06 08:44:49;;;;;;;2.40;2.20;;;24.30;99.90;;;;;;4717225;30;20464;-90
2021/08/06 08:47:21;;;;;;;3.90;2.37;;;24.40;99.90;;;;;;4720477;30;20464;-92
2021/08/06 08:49:50;;;;;;;2.80;2.50;;;24.40;99.90;;;;;;4721192;30;20468;-93
2021/08/06 08:52:17;;;;;;;2.13;1.93;;;24.50;99.90;;;;;;4714985;30;20964;-90
2021/08/06 08:54:42;;;;;;;2.70;2.00;;;24.60;99.90;;;;;;4715956;30;20453;-89
2021/08/06 08:57:08;;;;;;;2.00;1.90;;;24.70;99.90;;;;;;4717994;30;20465;-91
2021/08/06 08:59:34;;;;;;;2.00;1.90;;;24.80;99.90;;;;;;4717715;30;20235;-92
2021/08/06 09:02:00;;;;;;;2.10;2.00;;;24.90;99.90;;;;;;4717059;30;20260;-92
2021/08/06 09:04:28;;;;;;;2.50;2.30;;;24.90;99.90;;;;;;4716653;30;20206;-90
2021/08/06 09:06:55;;;;;;;2.40;2.20;;;25.00;99.90;;;;;;4718153;30;20258;-89
2021/08/06 09:09:24;;;;;;;2.40;2.20;;;25.10;99.90;;;;;;4716799;30;20460;-88
2021/08/06 09:11:51;;;;;;;1.97;1.87;;;25.20;99.90;;;;;;4730487;30;20506;-89
2021/08/06 09:14:19;;;;;;;4.33;1.80;;;25.30;99.90;;;;;;4715511;30;20478;-90
2021/08/06 09:17:13;;;;;;;1.77;1.67;;;25.30;99.90;;;;;;4731300;30;20465;-92
2021/08/06 09:19:53;;;;;;;2.80;2.37;;;25.40;99.90;;;;;;4712275;30;20541;-92
2021/08/06 09:22:25;;;;;;;3.00;2.80;;;25.50;99.90;;;;;;4717806;30;20590;-92
2021/08/06 09:25:10;;;;;;;1.90;1.80;;;25.60;99.90;;;;;;4717559;30;20533;-90
2021/08/06 09:27:46;;;;;;;2.53;2.33;;;25.60;99.90;;;;;;4718280;30;20450;-92
2021/08/06 09:30:33;;;;;;;2.23;2.03;;;25.70;99.90;;;;;;4714497;30;20463;-90
2021/08/06 09:32:58;;;;;;;3.30;2.97;;;25.80;99.90;;;;;;4716673;30;21051;-87
2021/08/06 09:35:27;;;;;;;2.60;2.30;;;25.90;99.90;;;;;;4718931;30;20478;-92
2021/08/06 09:37:58;;;;;;;2.30;2.20;;;25.90;99.90;;;;;;4719216;30;20234;-94
2021/08/06 09:40:32;;;;;;;2.83;2.63;;;26.00;99.90;;;;;;4719079;30;20487;-95
2021/08/06 09:43:01;;;;;;;3.13;2.83;;;26.00;99.90;;;;;;4725289;30;20465;-93
2021/08/06 09:45:35;;;;;;;2.20;2.03;;;26.00;99.90;;;;;;4727932;30;20549;-91
2021/08/06 09:48:04;;;;;;;2.70;2.47;;;26.10;99.90;;;;;;4715972;30;20497;-89
2021/08/06 09:50:34;;;;;;;2.70;2.30;;;26.10;99.90;;;;;;4709353;30;20477;-92
2021/08/06 09:53:01;;;;;;;3.03;2.40;;;26.10;99.90;;;;;;4717761;30;20881;-89
2021/08/06 09:55:32;;;;;;;2.27;2.10;;;26.20;99.90;;;;;;4719022;30;20551;-92
2021/08/06 09:58:02;;;;;;;3.40;2.50;;;26.20;99.90;;;;;;4712455;30;20892;-91
2021/08/06 10:00:28;;;;;;;2.70;2.50;;;26.20;99.90;;;;;;4712974;30;20459;-93
2021/08/06 10:02:55;;;;;;;2.80;2.60;;;26.20;99.90;;;;;;4723488;30;20550;-91
2021/08/06 10:05:23;;;;;;;3.13;2.93;;;26.20;99.90;;;;;;4716470;30;20467;-93
2021/08/06 10:07:51;;;;;;;2.90;2.70;;;26.30;99.90;;;;;;4713669;30;20493;-90
2021/08/06 10:10:23;;;;;;;3.17;2.87;;;26.30;99.90;;;;;;4710600;30;20470;-95
2021/08/06 10:13:02;;;;;;;2.67;2.47;;;26.30;99.90;;;;;;4712393;30;20530;-92
2021/08/06 10:15:33;;;;;;;3.00;2.80;;;26.30;99.90;;;;;;4709198;30;21102;-91
2021/08/06 10:18:01;;;;;;;5.70;2.80;;;26.30;99.90;;;;;;4713139;30;20473;-89
2021/08/06 10:20:33;;;;;;;3.17;2.87;;;26.30;99.90;;;;;;4731744;30;20488;-90
2021/08/06 10:23:05;;;;;;;2.90;2.70;;;26.30;99.90;;;;;;4706542;30;20461;-87
2021/08/06 10:25:36;;;;;;;2.80;2.60;;;26.20;99.90;;;;;;4715140;30;20532;-91
2021/08/06 10:28:04;;;;;;;3.03;2.83;;;26.20;99.90;;;;;;4711561;30;20458;-90
2021/08/06 10:30:32;;;;;;;2.37;2.17;;;26.20;99.90;;;;;;4712868;30;20485;-93
2021/08/06 10:33:08;;;;;;;2.77;2.53;;;26.20;99.90;;;;;;4713145;30;20526;-87
2021/08/06 10:35:54;;;;;;;2.77;2.57;;;26.20;99.90;;;;;;4713986;30;20495;-89
2021/08/06 10:38:43;;;;;;;2.80;2.60;;;26.30;99.90;;;;;;4713945;30;20465;-92
2021/08/06 10:41:23;;;;;;;2.70;2.50;;;26.30;99.90;;;;;;4715112;30;20524;-89
2021/08/06 10:43:50;;;;;;;2.80;2.60;;;26.40;99.90;;;;;;4717007;30;20492;-91
2021/08/06 10:46:18;;;;;;;3.13;2.93;;;26.40;99.90;;;;;;4718532;30;20513;-92
2021/08/06 10:48:52;;;;;;;2.73;2.53;;;26.40;99.90;;;;;;4713598;30;20475;-89
2021/08/06 10:51:24;;;;;;;3.40;2.77;;;26.50;99.90;;;;;;4714625;30;20473;-91
2021/08/06 10:53:59;;;;;;;2.67;2.47;;;26.50;99.90;;;;;;4711966;30;21029;-92
2021/08/06 10:56:29;;;;;;;2.73;2.53;;;26.40;99.90;;;;;;4712981;30;20474;-86
2021/08/06 10:58:57;;;;;;;2.47;2.27;;;26.40;99.90;;;;;;4714312;30;20466;-90
2021/08/06 11:01:30;;;;;;;2.87;2.67;;;26.50;99.90;;;;;;4712992;30;20478;-92
2021/08/06 11:03:59;;;;;;;2.77;2.57;;;26.50;99.90;;;;;;4714309;30;20467;-92
2021/08/06 11:06:49;;;;;;;2.43;2.23;;;26.50;99.90;;;;;;4723471;30;20451;-92
2021/08/06 11:09:24;;;;;;;3.60;2.33;;;26.60;99.90;;;;;;4721480;30;20469;-95
2021/08/06 11:11:53;;;;;;;2.77;2.57;;;26.60;99.90;;;;;;4715916;30;20515;-94
2021/08/06 11:14:31;;;;;;;2.30;2.10;;;26.60;99.90;;;;;;4713595;30;20548;-94
2021/08/06 11:17:22;;;;;;;2.60;2.07;;;26.60;99.90;;;;;;4716829;30;20554;-94
2021/08/06 11:20:08;;;;;;;2.77;2.57;;;26.40;99.90;;;;;;4715804;30;20463;-95
2021/08/06 11:22:44;;;;;;;2.50;2.30;;;26.40;99.90;;;;;;4717019;30;20918;-92
2021/08/06 11:25:23;;;;;;;2.10;2.00;;;26.40;99.90;;;;;;4716544;30;20541;-92
2021/08/06 11:27:54;;;;;;;2.13;2.03;;;26.30;99.90;;;;;;4715990;30;20455;-91
2021/08/06 11:30:28;;;;;;;2.70;2.50;;;26.30;99.90;;;;;;4716419;30;20471;-93
2021/08/06 11:33:04;;;;;;;2.53;1.90;;;26.20;99.90;;;;;;4722869;30;20506;-93
2021/08/06 11:35:35;;;;;;;2.00;1.90;;;26.20;99.90;;;;;;4717140;30;20549;-93
2021/08/06 11:38:05;;;;;;;2.43;2.23;;;26.30;99.90;;;;;;4721170;30;20455;-89
2021/08/06 11:40:33;;;;;;;2.67;2.47;;;26.30;99.90;;;;;;4714763;30;20473;-91
2021/08/06 11:43:15;;;;;;;1.90;1.80;;;26.40;99.90;;;;;;4712006;30;20555;-92
2021/08/06 11:45:43;;;;;;;2.17;1.97;;;26.40;99.90;;;;;;4708298;30;20514;-91
2021/08/06 11:48:09;;;;;;;2.27;1.70;;;26.30;99.90;;;;;;4713980;30;20489;-90
2021/08/06 11:50:55;;;;;;;2.90;2.30;;;26.20;99.90;;;;;;4711540;30;20494;-88
2021/08/06 11:53:25;;;;;;;5.47;1.90;;;26.20;99.90;;;;;;4711935;30;20262;-90
2021/08/06 11:55:52;;;;;;;1.93;1.83;;;26.20;99.90;;;;;;4707143;30;20533;-90
2021/08/06 11:58:35;;;;;;;2.03;1.93;;;26.20;99.90;;;;;;4713115;30;20447;-90
2021/08/06 12:01:02;;;;;;;2.30;2.10;;;26.10;99.90;;;;;;4722645;30;20961;-94
2021/08/06 12:03:29;;;;;;;2.00;1.90;;;26.20;99.90;;;;;;4717863;30;20871;-93
2021/08/06 12:06:01;;;;;;;2.47;2.27;;;26.20;99.90;;;;;;4726826;30;20459;-92
2021/08/06 12:08:34;;;;;;;2.20;2.00;;;26.20;99.90;;;;;;4725534;30;20571;-91
2021/08/06 12:11:05;;;;;;;2.00;1.80;;;26.10;99.90;;;;;;4722643;30;20470;-89
2021/08/06 12:13:37;;;;;;;1.90;1.73;;;26.10;99.90;;;;;;4717206;30;20958;-91
2021/08/06 12:16:07;;;;;;;1.97;1.87;;;26.10;99.90;;;;;;4723128;30;20486;-90
2021/08/06 12:18:38;;;;;;;1.93;1.83;;;26.00;99.90;;;;;;4719733;30;20450;-88
2021/08/06 12:21:18;;;;;;;2.03;1.90;;;26.00;99.90;;;;;;4714925;30;20466;-89
2021/08/06 12:23:50;;;;;;;2.17;2.07;;;26.00;99.90;;;;;;4718781;30;20458;-89
2021/08/06 12:26:20;;;;;;;2.17;2.03;;;26.00;99.90;;;;;;4734928;30;20459;-90
2021/08/06 12:29:05;;;;;;;2.20;2.00;;;26.10;99.90;;;;;;4738490;30;20472;-90
2021/08/06 12:31:31;;;;;;;4.50;2.47;;;26.10;99.90;;;;;;4733436;30;20458;-93
2021/08/06 12:34:03;;;;;;;2.20;2.00;;;26.10;99.90;;;;;;4727558;30;20566;-89
2021/08/06 12:36:30;;;;;;;2.77;2.30;;;26.20;99.90;;;;;;4736571;30;20492;-90
2021/08/06 12:39:14;;;;;;;2.80;2.60;;;26.20;99.90;;;;;;4737493;30;20457;-94
2021/08/06 12:41:44;;;;;;;2.33;2.13;;;26.20;99.90;;;;;;4722533;30;20821;-94
2021/08/06 12:44:32;;;;;;;2.90;2.40;;;26.20;99.90;;;;;;4734441;30;20447;-91
2021/08/06 12:47:46;;;;;;;1.90;1.80;;;26.20;99.90;;;;;;4722326;30;21051;-93
2021/08/06 12:50:29;;;;;;;2.17;2.03;;;26.20;99.90;;;;;;4719988;30;20458;-91
2021/08/06 12:53:05;;;;;;;2.23;2.10;;;26.20;99.90;;;;;;4713088;30;20521;-95
2021/08/06 12:55:32;;;;;;;2.20;2.10;;;26.10;99.90;;;;;;4713274;30;20581;-93
2021/08/06 12:58:00;;;;;;;3.57;3.27;;;26.10;99.90;;;;;;4712685;30;20474;-91